Forest City, California
Current Conditions -  °F | °C
As of 4:52 AM on Wednesday 22 Oct 2014 (Local Time) from KBLU Reporting Station
Clear Clear  
Wind Chill: 49°   Ceiling: Unl
Heat Index: 49°   Visibility: 10mi
Dew Point: 20°   Wind: 3mph
Humidity: 32%   Direction: 100°E
Pressure: 30.13"   Gusts: NA
Location:  39.5164°N, 120.718°W
Report Text: KBLU 221152Z AUTO 10003KT 10SM CLR 09/M07 A3013 RMK AO2 SLP161 T00941067 10100 20078 51001
Loading
Personal Weather Stations






























Interactive Weather Map
Tropical Storm Tracking
New forecast layout! Learn more

10-Day Weather Forecast

Advertisements
Track Severe Weather on mobile